Time;durP1;ratioP1;P1;durP2;ratioP2;P2;SDS_P1;SDS_P2;PMS_P1;PMS_P2;Temp;Humidity;BMP_temperature;BMP_pressure;BME280_temperature;BME280_humidity;BME280_pressure;Samples;Min_cycle;Max_cycle;Signal;HPM_P1;HPM_P2
2022/03/15 00:00:20;;;;;;;2.72;2.40;;;21.40;28.70;;;;;;5126151;27;49343;-20
2022/03/15 00:02:48;;;;;;;3.83;2.45;;;21.50;28.70;;;;;;5126511;27;47418;-20
2022/03/15 00:05:15;;;;;;;3.85;2.88;;;21.50;28.80;;;;;;5126443;27;46792;-20
2022/03/15 00:07:42;;;;;;;2.72;2.40;;;21.50;28.70;;;;;;5126277;27;46874;-21
2022/03/15 00:10:11;;;;;;;3.08;2.63;;;21.40;28.70;;;;;;5125723;27;47836;-22
2022/03/15 00:12:39;;;;;;;3.28;2.40;;;21.40;28.80;;;;;;5126501;27;46961;-22
2022/03/15 00:15:08;;;;;;;3.50;2.45;;;21.40;28.80;;;;;;5126189;27;47050;-22
2022/03/15 00:17:35;;;;;;;3.05;2.42;;;21.40;28.80;;;;;;5126775;27;46918;-20
2022/03/15 00:20:02;;;;;;;3.70;2.40;;;21.40;28.70;;;;;;5125798;27;47256;-20
2022/03/15 00:22:29;;;;;;;2.78;2.50;;;21.40;28.80;;;;;;5126187;27;46924;-20
2022/03/15 00:24:56;;;;;;;3.80;2.53;;;21.40;28.80;;;;;;5126192;27;46776;-20
2022/03/15 00:27:23;;;;;;;3.05;2.25;;;21.40;28.80;;;;;;5126105;27;46825;-21
2022/03/15 00:29:51;;;;;;;3.03;2.50;;;21.40;28.80;;;;;;5125798;27;47829;-21
2022/03/15 00:32:19;;;;;;;2.60;2.30;;;21.40;28.80;;;;;;5126250;27;47433;-20
2022/03/15 00:34:47;;;;;;;2.65;2.45;;;21.40;28.80;;;;;;5126051;27;46882;-19
2022/03/15 00:37:13;;;;;;;3.70;2.60;;;21.40;28.80;;;;;;5126428;27;46938;-19
2022/03/15 00:39:41;;;;;;;4.32;2.40;;;21.40;28.80;;;;;;5125684;27;47722;-20
2022/03/15 00:42:08;;;;;;;3.90;2.80;;;21.40;28.80;;;;;;5126083;27;47255;-21
2022/03/15 00:44:34;;;;;;;2.67;2.40;;;21.40;28.80;;;;;;5125659;27;46802;-20
2022/03/15 00:47:03;;;;;;;3.33;2.85;;;21.40;28.90;;;;;;5129328;27;46838;-20
2022/03/15 00:49:29;;;;;;;3.33;2.50;;;21.30;28.90;;;;;;5129420;27;49238;-20
2022/03/15 00:51:56;;;;;;;2.90;2.42;;;21.40;28.90;;;;;;5129561;27;46853;-22
2022/03/15 00:54:23;;;;;;;2.63;2.30;;;21.40;28.90;;;;;;5129396;27;46866;-22
2022/03/15 00:56:49;;;;;;;2.80;2.17;;;21.40;28.90;;;;;;5129703;27;46911;-20
2022/03/15 00:59:17;;;;;;;3.25;2.53;;;21.40;28.90;;;;;;5129215;27;48225;-21
2022/03/15 01:01:44;;;;;;;3.63;2.30;;;21.40;28.90;;;;;;5129158;27;47393;-20
2022/03/15 01:04:12;;;;;;;3.40;2.28;;;21.30;28.90;;;;;;5129266;27;46917;-21
2022/03/15 01:06:39;;;;;;;3.05;2.55;;;21.30;28.90;;;;;;5129618;27;47188;-20
2022/03/15 01:09:06;;;;;;;3.00;2.40;;;21.30;29.40;;;;;;5129004;27;48180;-20
2022/03/15 01:11:33;;;;;;;3.42;2.28;;;21.30;28.90;;;;;;5129196;27;46889;-20
2022/03/15 01:14:00;;;;;;;3.95;2.47;;;21.30;28.90;;;;;;5128890;27;46888;-20
2022/03/15 01:16:26;;;;;;;3.00;2.47;;;21.30;28.90;;;;;;5129225;27;46884;-20
2022/03/15 01:18:53;;;;;;;3.55;2.58;;;21.30;28.90;;;;;;5128756;27;48107;-20
2022/03/15 01:21:21;;;;;;;2.78;2.42;;;21.30;28.90;;;;;;5129088;27;47664;-20
2022/03/15 01:23:48;;;;;;;3.80;2.65;;;21.30;29.00;;;;;;5129413;27;46731;-20
2022/03/15 01:26:14;;;;;;;2.65;2.45;;;21.30;29.00;;;;;;5129306;27;47321;-20
2022/03/15 01:28:42;;;;;;;2.75;2.35;;;21.30;28.90;;;;;;5128954;27;47845;-19
2022/03/15 01:31:09;;;;;;;2.80;2.50;;;21.30;28.90;;;;;;5129016;27;46903;-20
2022/03/15 01:33:36;;;;;;;2.60;2.40;;;21.30;28.90;;;;;;5128849;27;46808;-20
2022/03/15 01:36:03;;;;;;;2.63;2.38;;;21.30;28.90;;;;;;5128884;27;46774;-20
2022/03/15 01:38:33;;;;;;;3.13;2.65;;;21.30;29.00;;;;;;5128608;27;47028;-20
2022/03/15 01:40:59;;;;;;;3.85;2.35;;;21.30;29.00;;;;;;5128703;27;47386;-20
2022/03/15 01:43:26;;;;;;;3.22;2.33;;;21.30;29.00;;;;;;5128902;27;46887;-20
2022/03/15 01:45:53;;;;;;;4.65;2.53;;;21.30;29.00;;;;;;5128583;27;47049;-20
2022/03/15 01:48:20;;;;;;;2.20;2.00;;;21.30;28.90;;;;;;5128640;27;48748;-20
2022/03/15 01:50:47;;;;;;;3.58;2.50;;;21.30;28.90;;;;;;5128509;27;47438;-20
2022/03/15 01:53:15;;;;;;;2.60;2.25;;;21.30;28.90;;;;;;5128756;27;46980;-20
2022/03/15 01:55:43;;;;;;;2.38;2.00;;;21.30;29.00;;;;;;5128700;27;46920;-20
2022/03/15 01:58:10;;;;;;;2.72;1.92;;;21.20;28.90;;;;;;5128209;27;47085;-20
2022/03/15 02:00:36;;;;;;;2.67;2.20;;;21.30;29.00;;;;;;5128362;27;46867;-20
2022/03/15 02:03:03;;;;;;;2.38;1.85;;;21.30;28.90;;;;;;5128372;27;46884;-20
2022/03/15 02:05:30;;;;;;;2.20;2.03;;;21.30;28.90;;;;;;5128414;27;46890;-20
2022/03/15 02:07:57;;;;;;;2.72;1.92;;;21.30;28.90;;;;;;5127956;27;46883;-20
2022/03/15 02:10:24;;;;;;;3.15;2.20;;;21.30;28.90;;;;;;5127453;27;47400;-20
2022/03/15 02:12:52;;;;;;;2.88;1.90;;;21.30;28.90;;;;;;5128399;27;46867;-21
2022/03/15 02:15:19;;;;;;;2.60;1.90;;;21.20;28.90;;;;;;5128210;27;47128;-20
2022/03/15 02:17:46;;;;;;;2.33;2.00;;;21.20;28.90;;;;;;5128319;27;46999;-20
2022/03/15 02:20:14;;;;;;;2.08;1.58;;;21.30;28.90;;;;;;5127903;27;47516;-20
2022/03/15 02:22:41;;;;;;;2.35;1.67;;;21.30;28.90;;;;;;5128023;27;46868;-20
2022/03/15 02:25:08;;;;;;;2.00;1.80;;;21.30;29.40;;;;;;5128218;27;46977;-20
2022/03/15 02:27:35;;;;;;;2.35;1.90;;;21.30;28.90;;;;;;5128174;27;47046;-20
2022/03/15 02:30:02;;;;;;;3.30;2.00;;;21.20;28.90;;;;;;5127562;27;46826;-20
2022/03/15 02:32:28;;;;;;;2.50;1.90;;;21.20;29.00;;;;;;5127902;27;46763;-20
2022/03/15 02:34:55;;;;;;;2.20;1.60;;;21.20;29.00;;;;;;5128186;27;46918;-20
2022/03/15 02:37:24;;;;;;;2.63;1.90;;;21.20;29.00;;;;;;5127608;27;48247;-19
2022/03/15 02:39:51;;;;;;;2.45;1.83;;;21.20;29.00;;;;;;5127883;27;47426;-21
2022/03/15 02:42:18;;;;;;;2.05;1.88;;;21.20;28.90;;;;;;5127884;27;46915;-20
2022/03/15 02:44:45;;;;;;;2.35;1.80;;;21.20;28.90;;;;;;5127723;27;46876;-21
2022/03/15 02:47:11;;;;;;;1.83;1.73;;;21.20;28.90;;;;;;5127834;27;48252;-19
2022/03/15 02:49:38;;;;;;;2.00;1.60;;;21.20;29.00;;;;;;5127381;27;46899;-20
2022/03/15 02:52:05;;;;;;;1.67;1.58;;;21.20;29.00;;;;;;5127522;27;46839;-21
2022/03/15 02:54:33;;;;;;;2.65;1.70;;;21.20;29.00;;;;;;5127666;27;47138;-20
2022/03/15 02:57:01;;;;;;;2.47;1.90;;;21.20;29.00;;;;;;5127597;27;48224;-20
2022/03/15 02:59:28;;;;;;;2.45;2.08;;;21.20;29.00;;;;;;5127109;27;46931;-20
2022/03/15 03:01:56;;;;;;;2.33;1.83;;;21.20;29.00;;;;;;5127739;27;46813;-20
2022/03/15 03:04:22;;;;;;;1.83;1.73;;;21.20;29.00;;;;;;5127463;27;47185;-20
2022/03/15 03:06:49;;;;;;;1.95;1.65;;;21.20;29.00;;;;;;5127460;27;48543;-20
2022/03/15 03:09:16;;;;;;;1.80;1.70;;;21.20;29.10;;;;;;5126603;27;46991;-21
2022/03/15 03:11:44;;;;;;;2.50;1.67;;;21.20;29.00;;;;;;5127619;27;46893;-20
2022/03/15 03:14:12;;;;;;;2.42;1.80;;;21.20;29.00;;;;;;5127481;27;46974;-20
2022/03/15 03:16:39;;;;;;;1.83;1.73;;;21.20;29.50;;;;;;5127032;27;48544;-21
2022/03/15 03:19:08;;;;;;;1.75;1.50;;;21.20;29.00;;;;;;5127189;27;47558;-21
2022/03/15 03:21:36;;;;;;;2.40;1.58;;;21.20;29.00;;;;;;5127136;27;46899;-21
2022/03/15 03:24:06;;;;;;;2.28;1.88;;;21.20;29.00;;;;;;5127380;27;46946;-20
2022/03/15 03:26:34;;;;;;;2.05;1.73;;;21.10;29.00;;;;;;5126886;27;46879;-20
2022/03/15 03:29:02;;;;;;;2.40;1.60;;;21.20;29.00;;;;;;5126967;27;47034;-20
2022/03/15 03:31:30;;;;;;;1.90;1.60;;;21.20;29.00;;;;;;5126950;27;46962;-20
2022/03/15 03:33:57;;;;;;;2.15;1.80;;;21.20;29.00;;;;;;5126942;27;47118;-20
2022/03/15 03:36:24;;;;;;;2.38;1.98;;;21.20;29.00;;;;;;5126666;27;49214;-20
2022/03/15 03:38:51;;;;;;;2.25;1.70;;;21.20;29.00;;;;;;5126978;27;46992;-20
2022/03/15 03:41:18;;;;;;;2.15;1.92;;;21.20;29.00;;;;;;5126746;27;46826;-21
2022/03/15 03:43:44;;;;;;;2.90;1.50;;;21.10;29.00;;;;;;5127194;27;46894;-21
2022/03/15 03:46:13;;;;;;;3.05;1.70;;;21.20;29.00;;;;;;5126650;27;48260;-20
2022/03/15 03:48:39;;;;;;;2.03;1.58;;;21.20;29.00;;;;;;5126526;27;46944;-21
2022/03/15 03:51:06;;;;;;;2.67;2.00;;;21.20;29.00;;;;;;5126445;27;46903;-20
2022/03/15 03:53:33;;;;;;;1.70;1.60;;;21.20;29.00;;;;;;5126826;27;47206;-20
2022/03/15 03:55:59;;;;;;;2.53;1.50;;;21.20;29.00;;;;;;5126691;27;47819;-20
2022/03/15 03:58:26;;;;;;;2.15;1.73;;;21.20;29.00;;;;;;5126543;27;47439;-21
2022/03/15 04:00:53;;;;;;;1.67;1.50;;;21.10;29.00;;;;;;5126274;27;46868;-20
2022/03/15 04:03:24;;;;;;;1.58;1.48;;;21.10;29.00;;;;;;5126742;27;47094;-20
2022/03/15 04:05:51;;;;;;;2.13;1.67;;;21.20;29.00;;;;;;5126274;27;46977;-20
2022/03/15 04:08:18;;;;;;;2.08;1.75;;;21.20;29.00;;;;;;5126410;27;46978;-20
2022/03/15 04:10:46;;;;;;;1.55;1.42;;;21.20;29.00;;;;;;5126258;27;47003;-20
2022/03/15 04:13:13;;;;;;;1.52;1.40;;;21.20;29.00;;;;;;5126784;27;46875;-20
2022/03/15 04:15:40;;;;;;;1.90;1.33;;;21.20;29.10;;;;;;5126164;27;49196;-20
2022/03/15 04:18:06;;;;;;;1.85;1.42;;;21.10;29.10;;;;;;5126544;27;46956;-19
2022/03/15 04:20:35;;;;;;;1.77;1.58;;;21.10;29.10;;;;;;5127418;27;47015;-21
2022/03/15 04:23:02;;;;;;;1.60;1.50;;;21.10;29.10;;;;;;5130433;27;46871;-20
2022/03/15 04:25:29;;;;;;;2.38;1.60;;;21.20;29.10;;;;;;5130001;27;48050;-20
2022/03/15 04:28:00;;;;;;;1.58;1.48;;;21.20;29.10;;;;;;5130242;27;47315;-20
2022/03/15 04:30:26;;;;;;;1.75;1.27;;;21.20;29.10;;;;;;5129958;27;47061;-20
2022/03/15 04:32:53;;;;;;;1.88;1.67;;;21.20;29.10;;;;;;5130134;27;46989;-20
2022/03/15 04:35:20;;;;;;;2.05;1.60;;;21.10;29.10;;;;;;5129713;27;49177;-20
2022/03/15 04:37:49;;;;;;;1.90;1.33;;;21.10;29.20;;;;;;5129749;27;46954;-20
2022/03/15 04:40:16;;;;;;;1.27;1.13;;;21.10;29.20;;;;;;5129877;27;46888;-20
2022/03/15 04:42:42;;;;;;;1.67;1.40;;;21.10;29.20;;;;;;5129779;27;47191;-20
2022/03/15 04:45:10;;;;;;;1.60;1.50;;;21.20;29.20;;;;;;5129670;27;49113;-20
2022/03/15 04:47:37;;;;;;;1.60;1.50;;;21.20;29.20;;;;;;5129578;27;47092;-20
2022/03/15 04:50:04;;;;;;;1.33;1.20;;;21.10;29.20;;;;;;5129422;27;46950;-20
2022/03/15 04:52:31;;;;;;;1.20;1.10;;;21.10;29.20;;;;;;5129887;27;46899;-20
2022/03/15 04:54:59;;;;;;;1.30;1.17;;;21.10;29.20;;;;;;5129424;27;48143;-20
2022/03/15 04:57:26;;;;;;;1.40;1.30;;;21.10;29.20;;;;;;5140291;27;46758;-20
2022/03/15 04:59:53;;;;;;;1.98;1.42;;;21.10;29.20;;;;;;5150156;27;46930;-19
2022/03/15 05:02:20;;;;;;;1.58;1.42;;;21.10;29.30;;;;;;5150272;27;47246;-19
2022/03/15 05:04:46;;;;;;;1.67;1.52;;;21.10;29.20;;;;;;5150032;27;47898;-20
2022/03/15 05:07:13;;;;;;;2.08;1.48;;;21.10;29.30;;;;;;5149764;27;46804;-20
2022/03/15 05:11:06;;;;;;;1.58;1.30;;;21.10;29.30;;;;;;5149976;27;46937;-19
2022/03/15 05:12:27;;;;;;;1.77;1.27;;;21.10;29.40;;;;;;5150258;27;46970;-20
2022/03/15 05:14:54;;;;;;;1.75;1.20;;;21.10;29.40;;;;;;5149470;27;48204;-20
2022/03/15 05:17:21;;;;;;;1.58;1.40;;;21.10;29.40;;;;;;5150046;27;46940;-20
2022/03/15 05:19:48;;;;;;;1.13;1.10;;;21.10;29.30;;;;;;5149613;27;47098;-20
2022/03/15 05:22:14;;;;;;;1.40;1.30;;;21.10;29.30;;;;;;5149930;27;46892;-21
2022/03/15 05:24:41;;;;;;;1.40;1.30;;;21.10;29.40;;;;;;5149757;27;48246;-20
2022/03/15 05:27:09;;;;;;;1.05;1.05;;;21.10;29.50;;;;;;5149941;27;46958;-21
2022/03/15 05:29:37;;;;;;;1.30;1.15;;;21.10;29.50;;;;;;5149594;27;46965;-20
2022/03/15 05:32:04;;;;;;;1.63;1.30;;;21.10;29.50;;;;;;5149625;27;46912;-20
2022/03/15 05:34:31;;;;;;;2.15;1.27;;;21.10;29.50;;;;;;5149725;27;47777;-20
2022/03/15 05:36:58;;;;;;;2.47;1.30;;;21.10;29.50;;;;;;5149587;27;47053;-21
2022/03/15 05:39:25;;;;;;;1.35;1.25;;;21.10;29.50;;;;;;5149819;27;47093;-20
2022/03/15 05:41:51;;;;;;;2.47;1.30;;;21.10;29.50;;;;;;5150334;27;47141;-20
2022/03/15 05:44:18;;;;;;;1.48;1.20;;;21.10;29.50;;;;;;5149173;27;48050;-29
2022/03/15 05:46:46;;;;;;;1.80;1.20;;;21.10;29.60;;;;;;5149437;27;47517;-20
2022/03/15 05:49:13;;;;;;;1.52;1.05;;;21.10;29.60;;;;;;5149257;27;46984;-21
2022/03/15 05:51:39;;;;;;;1.42;1.08;;;21.10;29.60;;;;;;5149848;27;46904;-20
2022/03/15 05:54:08;;;;;;;1.13;1.13;;;21.10;29.60;;;;;;5149492;27;49038;-21
2022/03/15 05:56:35;;;;;;;1.40;1.20;;;21.10;29.70;;;;;;5149545;27;46808;-20
2022/03/15 05:59:01;;;;;;;1.23;1.13;;;21.10;29.70;;;;;;5149531;27;47038;-21
2022/03/15 06:01:28;;;;;;;1.40;1.30;;;21.10;29.70;;;;;;5149769;27;46897;-20
2022/03/15 06:03:56;;;;;;;0.95;0.95;;;21.10;29.70;;;;;;5149254;27;48269;-20
2022/03/15 06:06:23;;;;;;;2.35;1.38;;;21.00;29.70;;;;;;5149454;27;46882;-20
2022/03/15 06:08:51;;;;;;;2.17;1.30;;;21.10;29.70;;;;;;5149406;27;46808;-20
2022/03/15 06:11:19;;;;;;;1.45;1.23;;;21.10;29.70;;;;;;5148901;27;46839;-20
2022/03/15 06:13:46;;;;;;;1.40;1.20;;;21.10;29.70;;;;;;5149201;27;48308;-24
2022/03/15 06:16:12;;;;;;;2.17;1.15;;;21.10;29.70;;;;;;5149297;27;46915;-20
2022/03/15 06:18:39;;;;;;;1.40;1.30;;;21.10;29.70;;;;;;5149170;27;46732;-20
2022/03/15 06:21:07;;;;;;;1.42;1.23;;;21.00;29.70;;;;;;5149097;27;47195;-20
2022/03/15 06:23:34;;;;;;;1.50;1.40;;;21.00;29.70;;;;;;5149183;27;46905;-19
2022/03/15 06:26:01;;;;;;;1.65;1.17;;;21.10;29.70;;;;;;5148562;27;46888;-19
2022/03/15 06:28:27;;;;;;;1.98;1.27;;;21.10;29.70;;;;;;5148944;27;47022;-20
2022/03/15 06:30:57;;;;;;;1.45;1.35;;;21.10;29.80;;;;;;5148914;27;46805;-20
2022/03/15 06:33:23;;;;;;;1.45;1.20;;;21.10;29.80;;;;;;5148133;27;48223;-20
2022/03/15 06:35:50;;;;;;;2.58;1.27;;;21.10;29.80;;;;;;5148534;27;47014;-20
2022/03/15 06:38:18;;;;;;;1.63;1.50;;;21.00;29.80;;;;;;5148788;27;46796;-20
2022/03/15 06:40:46;;;;;;;1.42;1.13;;;21.00;29.90;;;;;;5148638;27;46882;-20
2022/03/15 06:43:13;;;;;;;1.10;1.00;;;21.00;29.90;;;;;;5147253;27;48118;-20
2022/03/15 06:45:41;;;;;;;1.83;1.40;;;21.10;29.90;;;;;;5148373;27;46844;-20
2022/03/15 06:48:07;;;;;;;1.20;1.10;;;21.10;30.00;;;;;;5148275;27;46901;-20
2022/03/15 06:50:34;;;;;;;2.25;1.33;;;21.00;29.90;;;;;;5148592;27;47292;-20
2022/03/15 06:53:01;;;;;;;2.22;1.35;;;21.00;30.00;;;;;;5148240;27;48243;-20
2022/03/15 06:55:29;;;;;;;2.03;1.70;;;21.00;30.00;;;;;;5147754;27;46946;-20
2022/03/15 06:57:56;;;;;;;3.85;1.65;;;21.00;30.00;;;;;;5148481;27;46890;-20
2022/03/15 07:00:23;;;;;;;2.92;1.40;;;21.10;30.00;;;;;;5147311;27;46846;-20
2022/03/15 07:02:49;;;;;;;2.00;1.30;;;21.10;30.00;;;;;;5147363;27;47238;-20
2022/03/15 07:05:16;;;;;;;1.63;1.33;;;21.10;30.60;;;;;;5146893;27;46981;-21
2022/03/15 07:07:43;;;;;;;2.45;1.70;;;21.10;30.00;;;;;;5147000;27;46957;-20
2022/03/15 07:10:11;;;;;;;2.00;1.35;;;21.10;30.00;;;;;;5147794;27;46848;-15
2022/03/15 07:12:39;;;;;;;2.55;1.30;;;21.10;30.00;;;;;;5148120;27;47087;-15
2022/03/15 07:15:07;;;;;;;1.98;1.30;;;21.10;30.00;;;;;;5147765;27;47269;-15
2022/03/15 07:17:33;;;;;;;2.72;1.38;;;21.10;30.00;;;;;;5147674;27;46834;-15
2022/03/15 07:20:01;;;;;;;2.47;1.50;;;21.10;30.00;;;;;;5147908;27;47208;-15
2022/03/15 07:22:27;;;;;;;2.78;1.48;;;21.10;30.00;;;;;;5147561;27;47895;-15
2022/03/15 07:24:54;;;;;;;2.40;1.40;;;21.10;30.00;;;;;;5147732;27;46827;-15
2022/03/15 07:27:21;;;;;;;2.13;1.52;;;21.10;30.10;;;;;;5148064;27;46973;-16
2022/03/15 07:29:49;;;;;;;2.05;1.50;;;21.10;30.10;;;;;;5147623;27;47110;-16
2022/03/15 07:32:17;;;;;;;1.73;1.50;;;21.10;30.20;;;;;;5147089;27;46912;-17
2022/03/15 07:34:43;;;;;;;1.42;1.33;;;21.10;30.00;;;;;;5145906;27;47095;-21
2022/03/15 07:37:10;;;;;;;2.67;1.48;;;21.10;30.10;;;;;;5146236;27;46796;-21
2022/03/15 07:39:37;;;;;;;1.65;1.40;;;21.10;30.10;;;;;;5147832;27;47244;-21
2022/03/15 07:42:04;;;;;;;2.47;1.50;;;21.10;30.10;;;;;;5146582;27;49037;-21
2022/03/15 07:44:31;;;;;;;1.42;1.33;;;21.10;30.10;;;;;;5147214;27;47388;-21
2022/03/15 07:46:59;;;;;;;2.50;1.60;;;21.10;30.20;;;;;;5147422;27;46841;-21
2022/03/15 07:49:25;;;;;;;2.55;1.50;;;21.10;30.20;;;;;;5147756;27;46874;-20
2022/03/15 07:51:52;;;;;;;2.20;1.60;;;21.10;30.20;;;;;;5147012;27;48891;-21
2022/03/15 07:54:19;;;;;;;3.33;1.60;;;21.10;30.20;;;;;;5147028;27;47040;-21
2022/03/15 07:56:47;;;;;;;1.50;1.40;;;21.10;30.20;;;;;;5147109;27;46967;-21
2022/03/15 07:59:13;;;;;;;1.58;1.48;;;21.10;30.20;;;;;;5147782;27;46886;-21
2022/03/15 08:01:40;;;;;;;2.22;1.48;;;21.10;30.20;;;;;;5147188;27;48134;-21
2022/03/15 08:04:08;;;;;;;1.73;1.38;;;21.10;30.20;;;;;;5147157;27;47427;-21
2022/03/15 08:06:36;;;;;;;1.52;1.30;;;21.10;30.30;;;;;;5147243;27;46869;-21
2022/03/15 08:09:03;;;;;;;1.55;1.30;;;21.10;30.20;;;;;;5147358;27;47175;-21
2022/03/15 08:11:29;;;;;;;1.80;1.70;;;21.10;30.20;;;;;;5146893;27;49133;-21
2022/03/15 08:13:57;;;;;;;2.00;1.63;;;21.20;30.30;;;;;;5146997;27;46827;-20
2022/03/15 08:16:23;;;;;;;3.88;1.95;;;21.20;30.30;;;;;;5146995;27;46896;-20
2022/03/15 08:18:50;;;;;;;1.60;1.50;;;21.20;30.30;;;;;;5147310;27;46901;-20
2022/03/15 08:21:19;;;;;;;2.10;1.95;;;21.10;30.30;;;;;;5147009;27;47135;-21
2022/03/15 08:23:46;;;;;;;1.80;1.70;;;21.10;30.30;;;;;;5147336;27;46954;-21
2022/03/15 08:26:13;;;;;;;3.40;1.73;;;21.20;30.20;;;;;;5147102;27;46913;-17
2022/03/15 08:28:39;;;;;;;1.60;1.50;;;21.20;30.30;;;;;;5147224;27;46838;-16
2022/03/15 08:31:06;;;;;;;1.88;1.60;;;21.20;30.20;;;;;;5146401;27;46818;-15
2022/03/15 08:33:33;;;;;;;2.20;2.00;;;21.20;30.30;;;;;;5146190;27;46979;-17
2022/03/15 08:36:00;;;;;;;3.60;1.83;;;21.20;30.30;;;;;;5146295;27;46845;-15
2022/03/15 08:38:28;;;;;;;2.45;2.20;;;21.10;30.30;;;;;;5146120;27;47030;-16
2022/03/15 08:40:55;;;;;;;2.83;2.20;;;21.10;30.40;;;;;;5145598;27;47090;-16
2022/03/15 08:43:22;;;;;;;3.72;2.15;;;21.20;30.30;;;;;;5145543;27;46985;-16
2022/03/15 08:45:49;;;;;;;2.88;2.15;;;21.20;30.40;;;;;;5146142;27;47258;-16
2022/03/15 08:48:15;;;;;;;4.45;2.42;;;21.20;30.40;;;;;;5146412;27;47183;-16
2022/03/15 08:50:42;;;;;;;2.80;2.17;;;21.20;30.40;;;;;;5146789;27;48765;-15
2022/03/15 08:53:09;;;;;;;2.90;2.28;;;21.20;30.40;;;;;;5146542;27;46919;-16
2022/03/15 08:55:37;;;;;;;2.90;2.03;;;21.20;30.40;;;;;;5146659;27;46829;-16
2022/03/15 08:58:04;;;;;;;3.03;2.10;;;21.20;31.10;;;;;;5146788;27;46883;-16
2022/03/15 09:00:30;;;;;;;2.95;2.20;;;21.20;30.50;;;;;;5146169;27;47911;-15
2022/03/15 09:02:57;;;;;;;2.95;1.90;;;21.20;30.50;;;;;;5145468;27;47100;-15
2022/03/15 09:05:26;;;;;;;3.50;2.45;;;21.20;30.50;;;;;;5146524;27;47056;-15
2022/03/15 09:07:53;;;;;;;2.60;1.95;;;21.20;30.50;;;;;;5149810;27;46903;-15
2022/03/15 09:10:20;;;;;;;2.53;2.33;;;21.20;30.50;;;;;;5149662;27;47813;-16
2022/03/15 09:12:49;;;;;;;3.38;2.47;;;21.20;30.50;;;;;;5149950;27;46875;-16
2022/03/15 09:15:16;;;;;;;2.75;2.28;;;21.20;30.60;;;;;;5150043;27;46881;-15
2022/03/15 09:17:43;;;;;;;2.92;2.30;;;21.20;30.60;;;;;;5149735;27;46805;-15
2022/03/15 09:20:10;;;;;;;2.33;2.13;;;21.20;30.60;;;;;;5149955;27;48240;-15
2022/03/15 09:22:38;;;;;;;3.67;2.45;;;21.20;30.60;;;;;;5149664;27;46835;-47
2022/03/15 09:25:05;;;;;;;2.92;2.47;;;21.20;30.40;;;;;;5150040;27;46941;-16
2022/03/15 09:27:32;;;;;;;7.20;2.33;;;21.20;31.20;;;;;;5150038;27;47005;-15
2022/03/15 09:30:00;;;;;;;2.85;2.25;;;21.20;30.60;;;;;;5149507;27;48760;-15
2022/03/15 09:32:28;;;;;;;2.65;2.38;;;21.20;30.60;;;;;;5139735;27;46843;-16
2022/03/15 09:34:55;;;;;;;3.78;3.20;;;21.20;30.50;;;;;;5146389;27;46991;-17
2022/03/15 09:37:21;;;;;;;2.92;2.55;;;21.20;30.70;;;;;;5149392;27;47138;-16
2022/03/15 09:39:51;;;;;;;3.00;2.65;;;21.20;30.70;;;;;;5149077;27;48087;-17
2022/03/15 09:42:18;;;;;;;4.40;2.90;;;21.30;30.30;;;;;;5146182;27;47005;-16
2022/03/15 09:44:45;;;;;;;5.47;3.13;;;21.30;30.70;;;;;;5149375;27;46933;-17
2022/03/15 09:47:14;;;;;;;3.22;2.70;;;21.20;30.70;;;;;;5149055;27;47127;-16
2022/03/15 09:49:44;;;;;;;3.13;2.80;;;21.30;30.80;;;;;;5148527;27;47976;-17
2022/03/15 09:52:11;;;;;;;4.03;2.90;;;21.30;30.40;;;;;;5149112;27;47030;-16
2022/03/15 09:54:38;;;;;;;3.63;2.72;;;21.20;30.80;;;;;;5149675;27;46840;-17
2022/03/15 09:57:05;;;;;;;6.25;3.22;;;21.20;30.80;;;;;;5148646;27;46736;-16
2022/03/15 09:59:32;;;;;;;3.97;3.10;;;21.20;30.70;;;;;;5148697;27;46922;-16
2022/03/15 10:01:59;;;;;;;4.68;2.85;;;21.30;30.80;;;;;;5148085;27;46832;-15
2022/03/15 10:04:27;;;;;;;3.70;2.78;;;21.30;30.80;;;;;;5148533;27;46989;-16
2022/03/15 10:06:55;;;;;;;4.75;3.45;;;21.20;30.70;;;;;;5149512;27;47209;-16
2022/03/15 10:09:22;;;;;;;4.35;3.28;;;21.20;30.50;;;;;;5148877;27;48902;-15
2022/03/15 10:11:50;;;;;;;4.07;3.05;;;21.20;30.80;;;;;;5148271;27;46903;-15
2022/03/15 10:14:19;;;;;;;5.18;3.33;;;21.20;30.90;;;;;;5148962;27;46912;-21
2022/03/15 10:16:45;;;;;;;4.40;3.40;;;21.20;30.90;;;;;;5147218;27;47307;-21
2022/03/15 10:19:13;;;;;;;3.85;3.30;;;21.20;30.90;;;;;;5147389;27;48535;-21
2022/03/15 10:21:44;;;;;;;4.32;3.33;;;21.30;31.60;;;;;;5149130;27;46885;-21
2022/03/15 10:24:11;;;;;;;6.53;3.10;;;21.30;30.90;;;;;;5148608;27;47017;-21
2022/03/15 10:26:38;;;;;;;9.05;2.70;;;21.30;31.90;;;;;;5148747;27;47284;-21
2022/03/15 10:29:05;;;;;;;4.70;2.90;;;21.20;33.40;;;;;;5148533;27;48036;-20
2022/03/15 10:31:32;;;;;;;4.20;2.60;;;21.20;34.50;;;;;;5148513;27;46861;-21
2022/03/15 10:34:01;;;;;;;11.82;3.00;;;21.20;35.00;;;;;;5149039;27;46896;-17
2022/03/15 10:36:27;;;;;;;7.95;2.92;;;21.20;36.50;;;;;;5148601;27;46894;-16
2022/03/15 10:38:55;;;;;;;4.38;2.25;;;21.30;35.30;;;;;;5148763;27;48799;-16
2022/03/15 10:41:23;;;;;;;5.60;2.45;;;21.30;35.30;;;;;;5148451;27;46989;-16
2022/03/15 10:43:54;;;;;;;10.32;2.83;;;21.20;34.90;;;;;;5148727;27;46806;-16
2022/03/15 10:46:23;;;;;;;5.57;2.25;;;21.30;35.30;;;;;;5148358;27;46958;-15
2022/03/15 10:48:53;;;;;;;4.18;2.47;;;21.30;34.30;;;;;;5148557;27;47961;-16
2022/03/15 10:51:21;;;;;;;3.83;2.33;;;21.30;34.00;;;;;;5148329;27;47024;-16
2022/03/15 10:53:48;;;;;;;5.57;2.40;;;21.30;33.80;;;;;;5148613;27;46899;-16
2022/03/15 10:56:19;;;;;;;4.97;2.63;;;21.30;33.60;;;;;;5148222;27;46836;-15
2022/03/15 10:58:50;;;;;;;5.10;2.63;;;21.40;34.00;;;;;;5148184;27;47897;-16
2022/03/15 11:01:18;;;;;;;5.38;2.58;;;21.40;33.50;;;;;;5148203;27;46969;-20
2022/03/15 11:03:53;;;;;;;5.47;3.30;;;21.50;33.30;;;;;;5148430;27;46831;-21
2022/03/15 11:06:31;;;;;;;4.43;2.83;;;21.50;33.30;;;;;;5148263;27;47101;-21
2022/03/15 11:08:58;;;;;;;7.50;2.97;;;21.60;33.00;;;;;;5148170;27;47844;-21
2022/03/15 11:11:27;;;;;;;9.40;3.63;;;21.60;32.90;;;;;;5147616;27;47087;-21
2022/03/15 11:13:59;;;;;;;7.10;3.45;;;21.70;32.80;;;;;;5148074;27;46820;-21
2022/03/15 11:16:54;;;;;;;8.60;3.40;;;21.70;32.70;;;;;;5148410;27;46928;-21
2022/03/15 11:19:20;;;;;;;5.38;3.53;;;21.70;32.50;;;;;;5147332;27;47097;-21
2022/03/15 11:21:47;;;;;;;6.35;3.45;;;21.70;32.60;;;;;;5147246;27;46877;-21
2022/03/15 11:24:15;;;;;;;7.28;3.20;;;21.70;33.30;;;;;;5147984;27;46910;-20
2022/03/15 11:26:44;;;;;;;10.15;4.18;;;21.70;32.70;;;;;;5148157;27;46886;-21
2022/03/15 11:29:12;;;;;;;8.40;5.22;;;21.70;32.90;;;;;;5147045;27;48202;-21
2022/03/15 11:31:39;;;;;;;12.35;5.50;;;21.80;33.90;;;;;;5146449;27;46884;-21
2022/03/15 11:34:06;;;;;;;8.80;5.20;;;21.90;33.00;;;;;;5147690;27;46879;-21
2022/03/15 11:36:32;;;;;;;6.97;4.97;;;21.90;32.50;;;;;;5147666;27;47183;-21
2022/03/15 11:38:59;;;;;;;12.07;5.18;;;21.90;32.40;;;;;;5147711;27;47063;-21
2022/03/15 11:41:28;;;;;;;14.20;5.57;;;21.90;32.40;;;;;;5147554;27;47268;-21
2022/03/15 11:44:01;;;;;;;16.95;6.50;;;21.90;32.60;;;;;;5147573;27;46969;-21
2022/03/15 11:46:29;;;;;;;14.75;6.13;;;21.80;32.40;;;;;;5147388;27;46867;-21
2022/03/15 11:49:00;;;;;;;18.48;6.88;;;21.80;32.60;;;;;;5147593;27;46996;-21
2022/03/15 11:51:31;;;;;;;14.07;6.80;;;21.90;32.50;;;;;;5147686;27;47153;-20
2022/03/15 11:54:01;;;;;;;15.48;7.07;;;21.90;32.60;;;;;;5147921;27;46858;-20
2022/03/15 11:56:32;;;;;;;16.90;7.63;;;22.00;32.50;;;;;;5146812;27;46817;-21
2022/03/15 11:59:01;;;;;;;16.27;7.00;;;22.00;32.50;;;;;;5146763;27;47071;-20
2022/03/15 12:01:28;;;;;;;21.85;6.93;;;22.00;32.40;;;;;;5146775;27;46933;-21
2022/03/15 12:03:57;;;;;;;15.43;6.95;;;21.90;32.60;;;;;;5146413;27;46940;-20
2022/03/15 12:06:25;;;;;;;10.57;6.85;;;21.90;32.60;;;;;;5147397;27;47071;-16
2022/03/15 12:08:53;;;;;;;13.82;6.60;;;21.90;32.60;;;;;;5147278;27;47978;-16
2022/03/15 12:11:32;;;;;;;14.05;6.72;;;21.90;32.50;;;;;;5147087;27;47031;-16
2022/03/15 12:14:07;;;;;;;12.82;6.25;;;21.90;32.20;;;;;;5145498;27;47162;-16
2022/03/15 12:16:35;;;;;;;21.13;7.07;;;22.00;32.30;;;;;;5123732;27;46983;-17
2022/03/15 12:19:05;;;;;;;13.20;6.13;;;22.00;32.60;;;;;;5124102;27;49091;-16
2022/03/15 12:21:32;;;;;;;12.80;6.00;;;22.10;32.40;;;;;;5125821;27;47316;-17
2022/03/15 12:23:59;;;;;;;16.17;6.20;;;22.00;32.40;;;;;;5138024;27;46968;-16
2022/03/15 12:26:27;;;;;;;22.55;6.68;;;22.00;32.50;;;;;;5145865;27;47177;-15
2022/03/15 12:29:02;;;;;;;26.20;7.03;;;22.00;33.10;;;;;;5143572;27;47988;-16
2022/03/15 12:31:41;;;;;;;20.15;6.95;;;22.00;32.40;;;;;;5145310;27;46953;-16
2022/03/15 12:34:09;;;;;;;21.23;7.38;;;22.00;32.50;;;;;;5146489;27;47070;-16
2022/03/15 12:36:37;;;;;;;26.10;6.60;;;22.10;32.70;;;;;;5143724;27;47149;-16
2022/03/15 12:39:09;;;;;;;21.30;6.97;;;22.10;32.60;;;;;;5146170;27;49041;-16
2022/03/15 12:41:36;;;;;;;22.95;7.32;;;22.20;32.50;;;;;;5147874;27;47620;-17
2022/03/15 12:44:03;;;;;;;26.33;8.23;;;22.20;32.30;;;;;;5150245;27;46833;-17
2022/03/15 12:46:30;;;;;;;23.95;7.10;;;22.20;32.60;;;;;;5150269;27;46875;-16